sensor_id;sensor_type;location;lat;lon;timestamp;temperature;humidity
36186;DHT22;22228;53.222;7.446;2023-07-13T00:01:22;14.70;1.00
36186;DHT22;22228;53.222;7.446;2023-07-13T00:03:43;14.70;99.90
36186;DHT22;22228;53.222;7.446;2023-07-13T00:06:03;14.80;74.30
36186;DHT22;22228;53.222;7.446;2023-07-13T00:08:24;14.80;1.00
36186;DHT22;22228;53.222;7.446;2023-07-13T00:10:45;14.80;1.00
36186;DHT22;22228;53.222;7.446;2023-07-13T00:13:07;14.80;1.00
36186;DHT22;22228;53.222;7.446;2023-07-13T03:02:05;15.50;1.00
36186;DHT22;22228;53.222;7.446;2023-07-13T03:04:25;15.40;1.00
36186;DHT22;22228;53.222;7.446;2023-07-13T03:06:45;15.30;1.00
36186;DHT22;22228;53.222;7.446;2023-07-13T03:09:07;15.30;1.00
36186;DHT22;22228;53.222;7.446;2023-07-13T03:11:30;15.20;1.00
36186;DHT22;22228;53.222;7.446;2023-07-13T03:14:02;15.20;1.00
36186;DHT22;22228;53.222;7.446;2023-07-13T03:16:26;15.20;19.50
36186;DHT22;22228;53.222;7.446;2023-07-13T03:18:48;15.20;58.20
36186;DHT22;22228;53.222;7.446;2023-07-13T03:21:10;15.30;60.70
36186;DHT22;22228;53.222;7.446;2023-07-13T03:23:32;15.20;69.00
36186;DHT22;22228;53.222;7.446;2023-07-13T03:26:02;15.20;87.50
36186;DHT22;22228;53.222;7.446;2023-07-13T03:28:24;15.20;94.20
36186;DHT22;22228;53.222;7.446;2023-07-13T03:30:44;15.20;98.80
36186;DHT22;22228;53.222;7.446;2023-07-13T03:33:05;15.20;99.90
36186;DHT22;22228;53.222;7.446;2023-07-13T03:35:27;15.20;99.90
36186;DHT22;22228;53.222;7.446;2023-07-13T03:37:47;15.20;99.90
36186;DHT22;22228;53.222;7.446;2023-07-13T03:40:12;15.20;98.60
36186;DHT22;22228;53.222;7.446;2023-07-13T03:42:38;15.20;99.90
36186;DHT22;22228;53.222;7.446;2023-07-13T03:44:58;15.20;99.90
36186;DHT22;22228;53.222;7.446;2023-07-13T03:47:19;15.20;99.90
36186;DHT22;22228;53.222;7.446;2023-07-13T03:49:40;15.20;99.90
36186;DHT22;22228;53.222;7.446;2023-07-13T03:52:02;15.20;99.90
36186;DHT22;22228;53.222;7.446;2023-07-13T03:54:23;15.30;99.90
36186;DHT22;22228;53.222;7.446;2023-07-13T03:56:43;15.30;99.90
36186;DHT22;22228;53.222;7.446;2023-07-13T03:59:05;15.30;99.90
36186;DHT22;22228;53.222;7.446;2023-07-13T04:01:26;15.30;99.90
36186;DHT22;22228;53.222;7.446;2023-07-13T04:03:46;15.30;99.90
36186;DHT22;22228;53.222;7.446;2023-07-13T04:06:13;15.30;99.90
36186;DHT22;22228;53.222;7.446;2023-07-13T04:08:36;15.40;99.90
36186;DHT22;22228;53.222;7.446;2023-07-13T04:10:58;15.40;99.90
36186;DHT22;22228;53.222;7.446;2023-07-13T04:13:19;15.40;99.90
36186;DHT22;22228;53.222;7.446;2023-07-13T04:15:40;15.40;99.90
36186;DHT22;22228;53.222;7.446;2023-07-13T04:18:00;15.50;99.90
36186;DHT22;22228;53.222;7.446;2023-07-13T04:20:22;15.60;99.90
36186;DHT22;22228;53.222;7.446;2023-07-13T04:22:43;15.60;99.90
36186;DHT22;22228;53.222;7.446;2023-07-13T04:25:05;15.70;99.90
36186;DHT22;22228;53.222;7.446;2023-07-13T04:27:26;15.70;98.80
36186;DHT22;22228;53.222;7.446;2023-07-13T04:29:47;15.70;93.90
36186;DHT22;22228;53.222;7.446;2023-07-13T04:32:08;15.80;70.80
36186;DHT22;22228;53.222;7.446;2023-07-13T04:34:29;15.80;50.10
36186;DHT22;22228;53.222;7.446;2023-07-13T04:36:49;15.80;53.30
36186;DHT22;22228;53.222;7.446;2023-07-13T04:39:09;15.80;78.20
36186;DHT22;22228;53.222;7.446;2023-07-13T04:41:33;15.80;75.20
36186;DHT22;22228;53.222;7.446;2023-07-13T04:43:54;15.90;57.80
36186;DHT22;22228;53.222;7.446;2023-07-13T04:46:16;15.90;56.60
36186;DHT22;22228;53.222;7.446;2023-07-13T04:48:38;15.90;50.50
36186;DHT22;22228;53.222;7.446;2023-07-13T04:50:59;15.80;89.90
36186;DHT22;22228;53.222;7.446;2023-07-13T04:53:19;15.90;96.70
36186;DHT22;22228;53.222;7.446;2023-07-13T04:55:40;15.90;82.80
36186;DHT22;22228;53.222;7.446;2023-07-13T04:58:02;15.90;83.90
36186;DHT22;22228;53.222;7.446;2023-07-13T05:00:23;15.90;79.80
36186;DHT22;22228;53.222;7.446;2023-07-13T05:02:44;16.00;83.80
36186;DHT22;22228;53.222;7.446;2023-07-13T05:05:06;16.00;71.10
36186;DHT22;22228;53.222;7.446;2023-07-13T05:07:27;16.10;69.20
36186;DHT22;22228;53.222;7.446;2023-07-13T05:09:48;16.20;50.90
36186;DHT22;22228;53.222;7.446;2023-07-13T05:12:09;16.40;31.70
36186;DHT22;22228;53.222;7.446;2023-07-13T05:14:31;16.50;1.00
36186;DHT22;22228;53.222;7.446;2023-07-13T05:16:51;16.60;1.00
36186;DHT22;22228;53.222;7.446;2023-07-13T05:19:12;16.60;1.00
36186;DHT22;22228;53.222;7.446;2023-07-13T05:21:38;16.60;1.00
36186;DHT22;22228;53.222;7.446;2023-07-13T05:24:00;16.50;1.00
36186;DHT22;22228;53.222;7.446;2023-07-13T05:26:20;16.50;1.00
36186;DHT22;22228;53.222;7.446;2023-07-13T05:28:41;16.40;1.00
36186;DHT22;22228;53.222;7.446;2023-07-13T05:31:03;16.40;1.00
36186;DHT22;22228;53.222;7.446;2023-07-13T05:33:23;16.50;1.00
36186;DHT22;22228;53.222;7.446;2023-07-13T05:35:44;16.60;1.00
36186;DHT22;22228;53.222;7.446;2023-07-13T05:38:04;16.60;1.00
36186;DHT22;22228;53.222;7.446;2023-07-13T05:40:25;16.60;1.00
36186;DHT22;22228;53.222;7.446;2023-07-13T05:42:46;16.60;1.00
36186;DHT22;22228;53.222;7.446;2023-07-13T05:45:10;16.60;1.00
36186;DHT22;22228;53.222;7.446;2023-07-13T05:47:32;16.60;1.00
36186;DHT22;22228;53.222;7.446;2023-07-13T05:49:52;16.60;1.00
36186;DHT22;22228;53.222;7.446;2023-07-13T05:52:13;16.60;1.00
36186;DHT22;22228;53.222;7.446;2023-07-13T05:54:33;16.60;1.00
36186;DHT22;22228;53.222;7.446;2023-07-13T05:56:54;16.70;1.00
36186;DHT22;22228;53.222;7.446;2023-07-13T05:59:18;16.70;1.00
36186;DHT22;22228;53.222;7.446;2023-07-13T06:01:38;16.80;1.00
36186;DHT22;22228;53.222;7.446;2023-07-13T06:04:00;16.90;1.00
36186;DHT22;22228;53.222;7.446;2023-07-13T06:06:20;17.00;1.00
36186;DHT22;22228;53.222;7.446;2023-07-13T06:08:41;17.10;1.00
36186;DHT22;22228;53.222;7.446;2023-07-13T06:11:03;17.10;99.90
36186;DHT22;22228;53.222;7.446;2023-07-13T06:13:24;17.20;99.90
36186;DHT22;22228;53.222;7.446;2023-07-13T06:15:48;17.30;1.00
36186;DHT22;22228;53.222;7.446;2023-07-13T06:18:08;17.30;1.00
36186;DHT22;22228;53.222;7.446;2023-07-13T06:20:30;17.40;99.90
36186;DHT22;22228;53.222;7.446;2023-07-13T06:22:53;17.50;1.00
36186;DHT22;22228;53.222;7.446;2023-07-13T06:25:14;17.60;1.00
36186;DHT22;22228;53.222;7.446;2023-07-13T06:27:35;17.70;99.90
36186;DHT22;22228;53.222;7.446;2023-07-13T06:29:55;17.70;1.00
36186;DHT22;22228;53.222;7.446;2023-07-13T06:32:16;17.80;99.90
36186;DHT22;22228;53.222;7.446;2023-07-13T06:34:36;17.80;1.00
36186;DHT22;22228;53.222;7.446;2023-07-13T06:36:58;17.90;99.90
36186;DHT22;22228;53.222;7.446;2023-07-13T06:39:19;18.00;1.00
36186;DHT22;22228;53.222;7.446;2023-07-13T06:41:39;18.10;99.90
36186;DHT22;22228;53.222;7.446;2023-07-13T06:44:03;18.20;99.90
36186;DHT22;22228;53.222;7.446;2023-07-13T06:46:24;18.40;99.90
36186;DHT22;22228;53.222;7.446;2023-07-13T06:48:45;18.50;99.90
36186;DHT22;22228;53.222;7.446;2023-07-13T06:51:05;18.60;73.00
36186;DHT22;22228;53.222;7.446;2023-07-13T06:53:27;18.60;1.00
36186;DHT22;22228;53.222;7.446;2023-07-13T06:55:48;18.60;99.90
36186;DHT22;22228;53.222;7.446;2023-07-13T06:58:08;18.70;99.90
36186;DHT22;22228;53.222;7.446;2023-07-13T07:00:29;18.80;99.90
36186;DHT22;22228;53.222;7.446;2023-07-13T07:02:49;18.80;1.00
36186;DHT22;22228;53.222;7.446;2023-07-13T07:05:10;18.90;99.90
36186;DHT22;22228;53.222;7.446;2023-07-13T07:07:31;19.00;99.90
36186;DHT22;22228;53.222;7.446;2023-07-13T07:09:53;19.20;99.90
36186;DHT22;22228;53.222;7.446;2023-07-13T07:12:13;19.20;1.00
36186;DHT22;22228;53.222;7.446;2023-07-13T07:14:34;19.20;1.00
36186;DHT22;22228;53.222;7.446;2023-07-13T07:16:54;19.10;1.00
36186;DHT22;22228;53.222;7.446;2023-07-13T07:19:15;19.10;44.20
36186;DHT22;22228;53.222;7.446;2023-07-13T07:21:35;19.00;99.90
36186;DHT22;22228;53.222;7.446;2023-07-13T07:23:56;19.10;41.60
36186;DHT22;22228;53.222;7.446;2023-07-13T07:26:18;19.20;1.00
36186;DHT22;22228;53.222;7.446;2023-07-13T07:28:38;19.20;1.00
36186;DHT22;22228;53.222;7.446;2023-07-13T07:30:59;19.20;1.00
36186;DHT22;22228;53.222;7.446;2023-07-13T07:33:20;19.30;1.00
36186;DHT22;22228;53.222;7.446;2023-07-13T07:35:40;19.20;99.90
36186;DHT22;22228;53.222;7.446;2023-07-13T07:38:01;19.30;99.90
36186;DHT22;22228;53.222;7.446;2023-07-13T07:40:21;19.60;99.90
36186;DHT22;22228;53.222;7.446;2023-07-13T07:42:43;19.80;1.00
36186;DHT22;22228;53.222;7.446;2023-07-13T07:45:05;19.80;99.90
36186;DHT22;22228;53.222;7.446;2023-07-13T07:47:25;19.90;12.70
36186;DHT22;22228;53.222;7.446;2023-07-13T07:49:46;20.00;1.00
36186;DHT22;22228;53.222;7.446;2023-07-13T07:52:07;20.00;1.00
36186;DHT22;22228;53.222;7.446;2023-07-13T07:54:27;20.00;99.90
36186;DHT22;22228;53.222;7.446;2023-07-13T07:56:48;20.00;1.00
36186;DHT22;22228;53.222;7.446;2023-07-13T07:59:10;20.00;1.00
36186;DHT22;22228;53.222;7.446;2023-07-13T08:01:31;20.20;1.00
36186;DHT22;22228;53.222;7.446;2023-07-13T08:03:51;20.20;99.90
36186;DHT22;22228;53.222;7.446;2023-07-13T08:06:11;20.40;99.90
36186;DHT22;22228;53.222;7.446;2023-07-13T08:08:32;20.50;95.10
36186;DHT22;22228;53.222;7.446;2023-07-13T08:10:53;20.50;1.00
36186;DHT22;22228;53.222;7.446;2023-07-13T08:13:13;20.50;1.00
36186;DHT22;22228;53.222;7.446;2023-07-13T08:15:37;20.50;1.00
36186;DHT22;22228;53.222;7.446;2023-07-13T08:17:57;20.40;1.00
36186;DHT22;22228;53.222;7.446;2023-07-13T08:20:18;20.40;1.00
36186;DHT22;22228;53.222;7.446;2023-07-13T08:22:39;20.70;1.00
36186;DHT22;22228;53.222;7.446;2023-07-13T08:24:59;20.90;99.90
36186;DHT22;22228;53.222;7.446;2023-07-13T08:27:19;21.10;99.90
36186;DHT22;22228;53.222;7.446;2023-07-13T08:29:40;21.30;99.90
36186;DHT22;22228;53.222;7.446;2023-07-13T08:32:02;21.20;99.90
36186;DHT22;22228;53.222;7.446;2023-07-13T08:34:23;21.00;99.90
36186;DHT22;22228;53.222;7.446;2023-07-13T08:36:44;20.90;99.90
36186;DHT22;22228;53.222;7.446;2023-07-13T08:39:04;20.90;99.90
36186;DHT22;22228;53.222;7.446;2023-07-13T08:41:26;20.70;99.90
36186;DHT22;22228;53.222;7.446;2023-07-13T08:43:50;20.70;1.00
36186;DHT22;22228;53.222;7.446;2023-07-13T08:46:14;20.70;1.00
36186;DHT22;22228;53.222;7.446;2023-07-13T08:48:40;20.60;1.00
36186;DHT22;22228;53.222;7.446;2023-07-13T08:51:09;20.50;1.00
36186;DHT22;22228;53.222;7.446;2023-07-13T08:53:34;20.20;99.90
36186;DHT22;22228;53.222;7.446;2023-07-13T08:55:58;20.30;1.00
36186;DHT22;22228;53.222;7.446;2023-07-13T08:58:19;20.40;1.00
36186;DHT22;22228;53.222;7.446;2023-07-13T09:00:45;20.50;1.00
36186;DHT22;22228;53.222;7.446;2023-07-13T09:03:16;20.60;1.00
36186;DHT22;22228;53.222;7.446;2023-07-13T09:05:42;20.60;99.90
36186;DHT22;22228;53.222;7.446;2023-07-13T09:08:15;20.60;99.90
36186;DHT22;22228;53.222;7.446;2023-07-13T09:10:43;20.50;1.00
36186;DHT22;22228;53.222;7.446;2023-07-13T09:13:15;20.40;1.00
36186;DHT22;22228;53.222;7.446;2023-07-13T09:15:41;20.20;99.90
36186;DHT22;22228;53.222;7.446;2023-07-13T09:18:06;19.70;1.00
36186;DHT22;22228;53.222;7.446;2023-07-13T09:20:31;18.80;1.00
36186;DHT22;22228;53.222;7.446;2023-07-13T09:22:55;18.20;99.90
36186;DHT22;22228;53.222;7.446;2023-07-13T09:25:23;17.80;1.00
36186;DHT22;22228;53.222;7.446;2023-07-13T09:27:46;17.60;1.00
36186;DHT22;22228;53.222;7.446;2023-07-13T09:30:23;17.40;22.30
36186;DHT22;22228;53.222;7.446;2023-07-13T09:32:47;17.00;1.00
36186;DHT22;22228;53.222;7.446;2023-07-13T09:35:11;16.90;1.00
36186;DHT22;22228;53.222;7.446;2023-07-13T09:37:32;16.90;6.20
36186;DHT22;22228;53.222;7.446;2023-07-13T09:39:56;16.90;1.00
36186;DHT22;22228;53.222;7.446;2023-07-13T09:42:19;17.00;1.00
36186;DHT22;22228;53.222;7.446;2023-07-13T09:44:52;17.20;1.00
36186;DHT22;22228;53.222;7.446;2023-07-13T09:47:16;17.20;1.00
36186;DHT22;22228;53.222;7.446;2023-07-13T09:49:37;17.20;1.00
36186;DHT22;22228;53.222;7.446;2023-07-13T09:51:59;17.30;1.00
36186;DHT22;22228;53.222;7.446;2023-07-13T09:54:23;17.10;1.00
36186;DHT22;22228;53.222;7.446;2023-07-13T09:56:45;16.90;1.00
36186;DHT22;22228;53.222;7.446;2023-07-13T09:59:18;16.80;1.00
36186;DHT22;22228;53.222;7.446;2023-07-13T10:01:39;16.80;1.00
36186;DHT22;22228;53.222;7.446;2023-07-13T10:04:00;16.70;1.00
36186;DHT22;22228;53.222;7.446;2023-07-13T10:06:21;16.70;57.50
36186;DHT22;22228;53.222;7.446;2023-07-13T10:08:44;16.80;99.90
36186;DHT22;22228;53.222;7.446;2023-07-13T10:11:10;16.90;99.90
36186;DHT22;22228;53.222;7.446;2023-07-13T10:13:36;17.00;41.40
36186;DHT22;22228;53.222;7.446;2023-07-13T10:15:58;17.30;94.90
36186;DHT22;22228;53.222;7.446;2023-07-13T10:18:20;17.60;33.40
36186;DHT22;22228;53.222;7.446;2023-07-13T10:20:41;18.00;1.00
36186;DHT22;22228;53.222;7.446;2023-07-13T10:23:04;18.30;99.90
36186;DHT22;22228;53.222;7.446;2023-07-13T10:25:32;18.50;1.00
36186;DHT22;22228;53.222;7.446;2023-07-13T10:27:56;18.60;99.90
36186;DHT22;22228;53.222;7.446;2023-07-13T10:30:23;18.40;99.90
36186;DHT22;22228;53.222;7.446;2023-07-13T10:32:45;18.40;1.00
36186;DHT22;22228;53.222;7.446;2023-07-13T10:35:09;18.40;1.00
36186;DHT22;22228;53.222;7.446;2023-07-13T10:37:41;18.50;99.90
36186;DHT22;22228;53.222;7.446;2023-07-13T10:40:04;18.50;37.00
36186;DHT22;22228;53.222;7.446;2023-07-13T10:42:30;18.50;99.90
36186;DHT22;22228;53.222;7.446;2023-07-13T10:44:52;18.60;99.90
36186;DHT22;22228;53.222;7.446;2023-07-13T10:47:15;18.70;1.00
36186;DHT22;22228;53.222;7.446;2023-07-13T10:49:37;18.70;1.00
36186;DHT22;22228;53.222;7.446;2023-07-13T10:51:57;18.80;99.90
36186;DHT22;22228;53.222;7.446;2023-07-13T10:54:20;18.90;8.10
36186;DHT22;22228;53.222;7.446;2023-07-13T10:56:42;19.00;94.60
36186;DHT22;22228;53.222;7.446;2023-07-13T10:59:11;19.30;1.00
36186;DHT22;22228;53.222;7.446;2023-07-13T11:01:40;19.50;22.60
36186;DHT22;22228;53.222;7.446;2023-07-13T11:04:03;19.80;99.90
36186;DHT22;22228;53.222;7.446;2023-07-13T11:06:33;20.20;99.90
36186;DHT22;22228;53.222;7.446;2023-07-13T11:08:58;20.20;99.90
36186;DHT22;22228;53.222;7.446;2023-07-13T11:11:35;20.50;1.00
36186;DHT22;22228;53.222;7.446;2023-07-13T11:13:58;20.90;1.00
36186;DHT22;22228;53.222;7.446;2023-07-13T11:16:42;21.50;1.00
36186;DHT22;22228;53.222;7.446;2023-07-13T11:22:10;22.00;1.00
36186;DHT22;22228;53.222;7.446;2023-07-13T11:24:52;23.00;1.00
36186;DHT22;22228;53.222;7.446;2023-07-13T11:27:22;21.70;1.00
36186;DHT22;22228;53.222;7.446;2023-07-13T11:29:43;21.20;1.00
36186;DHT22;22228;53.222;7.446;2023-07-13T11:32:22;21.00;99.90
36186;DHT22;22228;53.222;7.446;2023-07-13T11:34:46;21.30;99.90
36186;DHT22;22228;53.222;7.446;2023-07-13T11:37:12;21.40;99.90
36186;DHT22;22228;53.222;7.446;2023-07-13T11:39:36;21.90;27.20
36186;DHT22;22228;53.222;7.446;2023-07-13T11:41:59;21.90;1.00
36186;DHT22;22228;53.222;7.446;2023-07-13T11:44:23;22.90;1.00
36186;DHT22;22228;53.222;7.446;2023-07-13T11:46:49;23.50;1.00
36186;DHT22;22228;53.222;7.446;2023-07-13T11:49:15;24.00;1.00
36186;DHT22;22228;53.222;7.446;2023-07-13T11:51:36;24.50;99.90
36186;DHT22;22228;53.222;7.446;2023-07-13T11:54:03;24.60;99.90
36186;DHT22;22228;53.222;7.446;2023-07-13T11:56:24;24.60;99.90
36186;DHT22;22228;53.222;7.446;2023-07-13T11:58:49;23.60;99.90
36186;DHT22;22228;53.222;7.446;2023-07-13T12:01:17;23.30;99.90
36186;DHT22;22228;53.222;7.446;2023-07-13T12:03:40;23.30;99.90
36186;DHT22;22228;53.222;7.446;2023-07-13T12:06:03;23.40;99.90
36186;DHT22;22228;53.222;7.446;2023-07-13T12:08:25;23.60;99.90
36186;DHT22;22228;53.222;7.446;2023-07-13T12:10:47;23.40;99.90
36186;DHT22;22228;53.222;7.446;2023-07-13T12:13:09;23.90;99.90
36186;DHT22;22228;53.222;7.446;2023-07-13T12:15:36;24.50;99.90
36186;DHT22;22228;53.222;7.446;2023-07-13T12:17:57;23.80;99.90
36186;DHT22;22228;53.222;7.446;2023-07-13T12:20:21;23.80;99.90
36186;DHT22;22228;53.222;7.446;2023-07-13T12:22:45;23.40;99.90
36186;DHT22;22228;53.222;7.446;2023-07-13T12:25:08;24.40;99.90
36186;DHT22;22228;53.222;7.446;2023-07-13T12:27:30;24.80;99.90
36186;DHT22;22228;53.222;7.446;2023-07-13T12:29:58;25.40;99.90
36186;DHT22;22228;53.222;7.446;2023-07-13T12:32:19;25.40;72.40
36186;DHT22;22228;53.222;7.446;2023-07-13T12:34:52;24.90;80.10
36186;DHT22;22228;53.222;7.446;2023-07-13T12:37:13;24.60;81.90
36186;DHT22;22228;53.222;7.446;2023-07-13T12:39:36;24.50;74.60
36186;DHT22;22228;53.222;7.446;2023-07-13T12:42:16;25.10;37.00
36186;DHT22;22228;53.222;7.446;2023-07-13T12:44:40;24.60;77.90
36186;DHT22;22228;53.222;7.446;2023-07-13T12:47:06;23.70;38.40
36186;DHT22;22228;53.222;7.446;2023-07-13T12:49:32;23.10;99.90
36186;DHT22;22228;53.222;7.446;2023-07-13T12:51:58;22.70;99.90
36186;DHT22;22228;53.222;7.446;2023-07-13T12:54:19;22.30;99.90
36186;DHT22;22228;53.222;7.446;2023-07-13T12:56:40;21.90;99.90
36186;DHT22;22228;53.222;7.446;2023-07-13T12:59:03;21.60;1.00
36186;DHT22;22228;53.222;7.446;2023-07-13T13:01:29;21.30;1.00
36186;DHT22;22228;53.222;7.446;2023-07-13T13:03:51;21.60;1.00
36186;DHT22;22228;53.222;7.446;2023-07-13T13:06:21;22.50;1.00
36186;DHT22;22228;53.222;7.446;2023-07-13T13:08:45;22.40;1.00
36186;DHT22;22228;53.222;7.446;2023-07-13T13:11:05;21.90;1.00
36186;DHT22;22228;53.222;7.446;2023-07-13T13:13:26;21.50;1.00
36186;DHT22;22228;53.222;7.446;2023-07-13T13:15:47;21.30;1.00
36186;DHT22;22228;53.222;7.446;2023-07-13T13:18:15;21.10;1.00
36186;DHT22;22228;53.222;7.446;2023-07-13T13:20:36;21.00;4.10
36186;DHT22;22228;53.222;7.446;2023-07-13T13:22:56;20.90;99.90
36186;DHT22;22228;53.222;7.446;2023-07-13T13:25:17;20.80;99.90
36186;DHT22;22228;53.222;7.446;2023-07-13T13:27:39;20.80;99.90
36186;DHT22;22228;53.222;7.446;2023-07-13T13:30:00;20.60;99.90
36186;DHT22;22228;53.222;7.446;2023-07-13T13:32:20;20.60;99.90
36186;DHT22;22228;53.222;7.446;2023-07-13T13:34:42;20.70;99.90
36186;DHT22;22228;53.222;7.446;2023-07-13T13:37:04;20.80;99.90
36186;DHT22;22228;53.222;7.446;2023-07-13T13:39:33;20.80;99.90
36186;DHT22;22228;53.222;7.446;2023-07-13T13:41:54;20.70;99.90
36186;DHT22;22228;53.222;7.446;2023-07-13T13:44:16;20.70;1.00
36186;DHT22;22228;53.222;7.446;2023-07-13T13:46:37;20.60;99.90
36186;DHT22;22228;53.222;7.446;2023-07-13T13:48:57;20.70;23.60
36186;DHT22;22228;53.222;7.446;2023-07-13T13:51:21;20.50;1.00
36186;DHT22;22228;53.222;7.446;2023-07-13T13:53:43;20.50;1.00
36186;DHT22;22228;53.222;7.446;2023-07-13T13:56:05;20.70;1.00
36186;DHT22;22228;53.222;7.446;2023-07-13T13:58:25;21.40;1.00
36186;DHT22;22228;53.222;7.446;2023-07-13T14:00:46;22.80;99.90
36186;DHT22;22228;53.222;7.446;2023-07-13T14:03:11;23.50;99.90
36186;DHT22;22228;53.222;7.446;2023-07-13T14:05:34;23.70;99.90
36186;DHT22;22228;53.222;7.446;2023-07-13T14:07:56;24.00;98.40
36186;DHT22;22228;53.222;7.446;2023-07-13T14:10:18;24.40;1.00
36186;DHT22;22228;53.222;7.446;2023-07-13T14:12:39;24.50;1.00
36186;DHT22;22228;53.222;7.446;2023-07-13T14:15:00;24.60;1.00
36186;DHT22;22228;53.222;7.446;2023-07-13T14:17:23;24.70;1.00
36186;DHT22;22228;53.222;7.446;2023-07-13T14:19:44;24.60;1.00
36186;DHT22;22228;53.222;7.446;2023-07-13T14:22:06;25.20;1.00
36186;DHT22;22228;53.222;7.446;2023-07-13T14:24:28;25.40;1.00
36186;DHT22;22228;53.222;7.446;2023-07-13T14:26:48;25.40;1.00
36186;DHT22;22228;53.222;7.446;2023-07-13T14:29:13;25.00;1.00
36186;DHT22;22228;53.222;7.446;2023-07-13T14:31:35;24.40;1.00
36186;DHT22;22228;53.222;7.446;2023-07-13T14:33:56;24.10;1.00
36186;DHT22;22228;53.222;7.446;2023-07-13T14:36:28;24.70;1.00
36186;DHT22;22228;53.222;7.446;2023-07-13T14:38:48;25.10;1.00
36186;DHT22;22228;53.222;7.446;2023-07-13T14:41:10;25.40;1.00
36186;DHT22;22228;53.222;7.446;2023-07-13T14:43:31;25.20;1.00
36186;DHT22;22228;53.222;7.446;2023-07-13T14:45:51;25.20;1.00
36186;DHT22;22228;53.222;7.446;2023-07-13T14:48:14;24.80;1.00
36186;DHT22;22228;53.222;7.446;2023-07-13T14:50:36;24.60;1.00
36186;DHT22;22228;53.222;7.446;2023-07-13T14:52:58;24.70;1.00
36186;DHT22;22228;53.222;7.446;2023-07-13T14:55:19;24.80;1.00
36186;DHT22;22228;53.222;7.446;2023-07-13T14:57:42;25.10;1.00
36186;DHT22;22228;53.222;7.446;2023-07-13T15:00:03;24.80;1.00
36186;DHT22;22228;53.222;7.446;2023-07-13T15:02:27;24.80;1.00
36186;DHT22;22228;53.222;7.446;2023-07-13T15:04:49;25.10;1.00
36186;DHT22;22228;53.222;7.446;2023-07-13T15:07:10;24.80;1.00
36186;DHT22;22228;53.222;7.446;2023-07-13T15:09:32;24.30;1.00
36186;DHT22;22228;53.222;7.446;2023-07-13T15:11:52;24.40;1.00
36186;DHT22;22228;53.222;7.446;2023-07-13T15:14:14;24.30;1.00
36186;DHT22;22228;53.222;7.446;2023-07-13T15:16:35;23.60;1.00
36186;DHT22;22228;53.222;7.446;2023-07-13T15:18:56;22.90;38.80
36186;DHT22;22228;53.222;7.446;2023-07-13T15:21:21;22.50;99.90
36186;DHT22;22228;53.222;7.446;2023-07-13T15:23:42;22.50;99.90
36186;DHT22;22228;53.222;7.446;2023-07-13T15:26:02;22.20;99.90
36186;DHT22;22228;53.222;7.446;2023-07-13T15:28:23;22.20;99.90
36186;DHT22;22228;53.222;7.446;2023-07-13T15:30:47;22.00;99.90
36186;DHT22;22228;53.222;7.446;2023-07-13T15:33:12;22.00;99.90
36186;DHT22;22228;53.222;7.446;2023-07-13T15:35:33;22.10;99.90
36186;DHT22;22228;53.222;7.446;2023-07-13T15:37:54;22.20;99.90
36186;DHT22;22228;53.222;7.446;2023-07-13T15:40:14;21.80;99.90
36186;DHT22;22228;53.222;7.446;2023-07-13T15:42:35;21.50;1.00
36186;DHT22;22228;53.222;7.446;2023-07-13T15:44:58;21.20;1.00
36186;DHT22;22228;53.222;7.446;2023-07-13T15:47:22;20.90;1.00
36186;DHT22;22228;53.222;7.446;2023-07-13T15:49:43;20.90;1.00
36186;DHT22;22228;53.222;7.446;2023-07-13T15:52:04;21.00;17.50
36186;DHT22;22228;53.222;7.446;2023-07-13T15:54:24;21.60;1.00
36186;DHT22;22228;53.222;7.446;2023-07-13T15:56:50;21.70;1.00
36186;DHT22;22228;53.222;7.446;2023-07-13T15:59:12;21.50;1.00
36186;DHT22;22228;53.222;7.446;2023-07-13T16:01:33;21.40;1.00
36186;DHT22;22228;53.222;7.446;2023-07-13T16:03:55;21.30;1.00
36186;DHT22;22228;53.222;7.446;2023-07-13T16:06:18;21.20;1.00
36186;DHT22;22228;53.222;7.446;2023-07-13T16:08:42;21.20;1.00
36186;DHT22;22228;53.222;7.446;2023-07-13T16:11:02;21.10;1.00
36186;DHT22;22228;53.222;7.446;2023-07-13T16:13:23;21.30;1.00
36186;DHT22;22228;53.222;7.446;2023-07-13T16:15:45;21.50;1.00
36186;DHT22;22228;53.222;7.446;2023-07-13T16:18:05;21.80;1.00
36186;DHT22;22228;53.222;7.446;2023-07-13T16:20:27;22.20;1.00
36186;DHT22;22228;53.222;7.446;2023-07-13T16:22:50;22.40;99.90
36186;DHT22;22228;53.222;7.446;2023-07-13T16:25:16;22.80;99.90
36186;DHT22;22228;53.222;7.446;2023-07-13T16:27:38;23.20;99.90
36186;DHT22;22228;53.222;7.446;2023-07-13T16:29:58;23.30;99.90
36186;DHT22;22228;53.222;7.446;2023-07-13T16:32:19;23.00;99.90
36186;DHT22;22228;53.222;7.446;2023-07-13T16:34:41;22.80;99.90
36186;DHT22;22228;53.222;7.446;2023-07-13T16:37:13;22.60;99.90
36186;DHT22;22228;53.222;7.446;2023-07-13T16:39:34;22.70;99.90
36186;DHT22;22228;53.222;7.446;2023-07-13T16:41:57;22.80;99.90
36186;DHT22;22228;53.222;7.446;2023-07-13T16:44:19;22.40;99.90
36186;DHT22;22228;53.222;7.446;2023-07-13T16:46:40;22.00;99.90
36186;DHT22;22228;53.222;7.446;2023-07-13T16:49:01;21.50;1.00
36186;DHT22;22228;53.222;7.446;2023-07-13T16:51:22;21.10;1.00
36186;DHT22;22228;53.222;7.446;2023-07-13T16:53:44;21.00;1.00
36186;DHT22;22228;53.222;7.446;2023-07-13T16:56:08;21.00;1.00
36186;DHT22;22228;53.222;7.446;2023-07-13T16:58:33;20.90;1.00
36186;DHT22;22228;53.222;7.446;2023-07-13T17:00:54;21.00;1.00
36186;DHT22;22228;53.222;7.446;2023-07-13T17:03:14;21.20;1.00
36186;DHT22;22228;53.222;7.446;2023-07-13T17:05:39;22.30;99.90
36186;DHT22;22228;53.222;7.446;2023-07-13T17:08:01;23.50;99.90
36186;DHT22;22228;53.222;7.446;2023-07-13T17:10:24;24.10;47.50
36186;DHT22;22228;53.222;7.446;2023-07-13T17:12:45;24.60;2.40
36186;DHT22;22228;53.222;7.446;2023-07-13T17:15:09;24.40;1.00
36186;DHT22;22228;53.222;7.446;2023-07-13T17:17:32;23.80;1.00
36186;DHT22;22228;53.222;7.446;2023-07-13T17:19:53;23.40;16.30
36186;DHT22;22228;53.222;7.446;2023-07-13T17:22:14;23.60;24.10
36186;DHT22;22228;53.222;7.446;2023-07-13T17:24:37;24.10;1.00
36186;DHT22;22228;53.222;7.446;2023-07-13T17:26:59;24.50;1.00
36186;DHT22;22228;53.222;7.446;2023-07-13T17:29:20;24.60;1.00
36186;DHT22;22228;53.222;7.446;2023-07-13T17:31:41;24.60;1.00
36186;DHT22;22228;53.222;7.446;2023-07-13T17:34:02;24.60;1.00
36186;DHT22;22228;53.222;7.446;2023-07-13T17:36:24;24.60;1.00
36186;DHT22;22228;53.222;7.446;2023-07-13T17:38:46;24.40;1.00
36186;DHT22;22228;53.222;7.446;2023-07-13T17:41:11;24.20;1.00
36186;DHT22;22228;53.222;7.446;2023-07-13T17:43:35;23.80;1.00
36186;DHT22;22228;53.222;7.446;2023-07-13T17:45:56;23.40;1.00
36186;DHT22;22228;53.222;7.446;2023-07-13T17:48:19;22.80;3.50
36186;DHT22;22228;53.222;7.446;2023-07-13T17:50:40;22.40;78.20
36186;DHT22;22228;53.222;7.446;2023-07-13T17:53:05;22.00;99.90
36186;DHT22;22228;53.222;7.446;2023-07-13T17:55:28;21.90;99.90
36186;DHT22;22228;53.222;7.446;2023-07-13T17:57:49;22.20;99.90